createdAt,value
2022-08-26T00:01:29.913Z,101324.50
2022-08-26T00:03:59.234Z,101328.88
2022-08-26T00:06:28.597Z,101321.00
2022-08-26T00:08:57.059Z,101336.03
2022-08-26T00:11:26.993Z,101344.88
2022-08-26T00:13:56.127Z,101334.34
2022-08-26T00:16:28.567Z,101340.66
2022-08-26T00:18:57.423Z,101345.72
2022-08-26T00:21:26.753Z,101341.22
2022-08-26T00:23:55.909Z,101343.22
2022-08-26T00:26:24.925Z,101341.22
2022-08-26T00:28:57.927Z,101337.44
2022-08-26T00:31:28.177Z,101332.09
2022-08-26T00:34:00.369Z,101337.31
2022-08-26T00:36:29.734Z,101332.09
2022-08-26T00:38:58.839Z,101335.63
2022-08-26T00:41:27.751Z,101331.53
2022-08-26T00:43:56.385Z,101331.53
2022-08-26T00:46:31.744Z,101319.88
2022-08-26T00:49:11.915Z,101313.00
2022-08-26T00:51:48.257Z,101317.50
2022-08-26T00:54:18.933Z,101312.16
2022-08-26T00:56:54.285Z,101308.38
2022-08-26T00:59:26.783Z,101308.66
2022-08-26T01:01:58.271Z,101313.84
2022-08-26T01:04:31.742Z,101327.91
2022-08-26T01:07:01.658Z,101327.59
2022-08-26T01:09:32.686Z,101326.19
2022-08-26T01:12:04.355Z,101326.50
2022-08-26T01:14:36.757Z,101320.28
2022-08-26T01:17:09.185Z,101320.44
2022-08-26T01:19:44.785Z,101321.53
2022-08-26T01:22:18.755Z,101321.25
2022-08-26T01:24:49.888Z,101332.59
2022-08-26T01:27:22.290Z,101332.88
2022-08-26T01:29:53.137Z,101338.47
2022-08-26T01:32:25.113Z,101337.47
2022-08-26T01:34:54.399Z,101340.56
2022-08-26T01:37:25.764Z,101347.13
2022-08-26T01:39:58.010Z,101343.75
2022-08-26T01:42:28.723Z,101348.25
2022-08-26T01:45:02.519Z,101345.28
2022-08-26T01:47:35.003Z,101351.06
2022-08-26T01:50:07.190Z,101357.09
2022-08-26T01:52:39.706Z,101357.81
2022-08-26T01:55:11.688Z,101356.69
2022-08-26T01:57:41.886Z,101351.06
2022-08-26T02:00:14.916Z,101359.53
2022-08-26T02:02:49.316Z,101362.63
2022-08-26T02:05:21.784Z,101370.31
2022-08-26T02:07:51.094Z,101368.81
2022-08-26T02:10:21.243Z,101367.00
2022-08-26T02:12:50.249Z,101370.41
2022-08-26T02:15:19.288Z,101371.34
2022-08-26T02:17:53.383Z,101371.34
2022-08-26T02:20:26.446Z,101371.94
2022-08-26T02:22:55.435Z,101375.72
2022-08-26T02:25:30.233Z,101373.31
2022-08-26T02:27:58.684Z,101383.41
2022-08-26T02:30:29.925Z,101382.72
2022-08-26T02:33:01.677Z,101379.75
2022-08-26T02:35:31.257Z,101383.22
2022-08-26T02:38:02.666Z,101382.34
2022-08-26T02:40:44.014Z,101387.94
2022-08-26T02:43:14.247Z,101382.59
2022-08-26T02:45:43.151Z,101392.94
2022-08-26T02:48:15.525Z,101403.91
2022-08-26T02:50:44.158Z,101403.34
2022-08-26T02:53:13.636Z,101409.34
2022-08-26T02:55:44.476Z,101403.78
2022-08-26T02:58:13.035Z,101409.78
2022-08-26T03:00:53.280Z,101408.44
2022-08-26T03:03:23.725Z,101408.91
2022-08-26T03:05:52.495Z,101408.53
2022-08-26T03:08:22.556Z,101407.69
2022-08-26T03:10:53.353Z,101406.44
2022-08-26T03:13:21.793Z,101411.78
2022-08-26T03:15:50.810Z,101419.75
2022-08-26T03:18:19.471Z,101419.75
2022-08-26T03:20:49.483Z,101409.13
2022-08-26T03:23:18.587Z,101415.81
2022-08-26T03:25:52.703Z,101414.28
2022-08-26T03:28:23.163Z,101418.78
2022-08-26T03:30:54.909Z,101417.22
2022-08-26T03:33:23.552Z,101423.81
2022-08-26T03:35:52.747Z,101415.72
2022-08-26T03:38:21.980Z,101418.97
2022-08-26T03:40:52.757Z,101408.56
2022-08-26T03:43:22.554Z,101410.19
2022-08-26T03:45:51.371Z,101412.91
2022-08-26T03:48:21.036Z,101415.97
2022-08-26T03:50:49.392Z,101418.72
2022-08-26T03:53:20.530Z,101418.84
2022-08-26T03:55:49.255Z,101425.38
2022-08-26T03:58:24.489Z,101426.38
2022-08-26T04:00:55.596Z,101426.53
2022-08-26T04:03:38.401Z,101421.78
2022-08-26T04:06:07.758Z,101419.97
2022-08-26T04:08:36.908Z,101422.31
2022-08-26T04:11:07.664Z,101415.75
2022-08-26T04:13:37.703Z,101412.88
2022-08-26T04:16:33.094Z,101414.00
2022-08-26T04:19:02.528Z,101417.28
2022-08-26T04:21:31.085Z,101419.25
2022-08-26T04:23:59.583Z,101415.09
2022-08-26T04:26:39.392Z,101423.63
2022-08-26T04:29:15.356Z,101417.38
2022-08-26T04:31:44.176Z,101420.50
2022-08-26T04:34:14.213Z,101430.38
2022-08-26T04:36:44.511Z,101422.13
2022-08-26T04:39:18.666Z,101423.22
2022-08-26T04:41:50.419Z,101425.50
2022-08-26T04:44:21.503Z,101431.75
2022-08-26T04:46:50.005Z,101426.88
2022-08-26T04:49:18.665Z,101436.81
2022-08-26T04:51:47.412Z,101435.63
2022-08-26T04:54:16.538Z,101437.28
2022-08-26T04:56:47.543Z,101451.06
2022-08-26T04:59:18.414Z,101451.56
2022-08-26T05:01:51.551Z,101450.59
2022-08-26T05:04:22.306Z,101448.31
2022-08-26T05:06:52.152Z,101457.25
2022-08-26T05:09:21.484Z,101458.34
2022-08-26T05:11:52.217Z,101457.97
2022-08-26T05:14:23.448Z,101456.41
2022-08-26T05:16:54.135Z,101464.38
2022-08-26T05:19:22.949Z,101463.78
2022-08-26T05:21:51.966Z,101465.22
2022-08-26T05:24:20.531Z,101466.34
2022-08-26T05:26:49.986Z,101476.34
2022-08-26T05:29:18.999Z,101476.97
2022-08-26T05:31:48.647Z,101472.72
2022-08-26T05:34:21.009Z,101485.03
2022-08-26T05:36:49.628Z,101477.81
2022-08-26T05:39:18.231Z,101479.47
2022-08-26T05:41:47.116Z,101488.06
2022-08-26T05:44:18.930Z,101489.03
2022-08-26T05:46:47.958Z,101490.97
2022-08-26T05:49:22.491Z,101500.03
2022-08-26T05:51:54.641Z,101507.28
2022-08-26T05:54:23.199Z,101501.00
2022-08-26T05:56:52.696Z,101504.63
2022-08-26T05:59:24.584Z,101503.38
2022-08-26T06:01:55.106Z,101504.97
2022-08-26T06:04:26.973Z,101513.78
2022-08-26T06:06:57.692Z,101513.66
2022-08-26T06:09:27.061Z,101518.97
2022-08-26T06:11:56.209Z,101520.78
2022-08-26T06:14:26.445Z,101522.72
2022-08-26T06:16:55.714Z,101518.63
2022-08-26T06:19:26.083Z,101528.38
2022-08-26T06:22:23.474Z,101525.03
2022-08-26T06:25:09.912Z,101531.41
2022-08-26T06:27:38.430Z,101529.25
2022-08-26T06:30:11.260Z,101528.53
2022-08-26T06:32:41.126Z,101537.59
2022-08-26T06:35:11.967Z,101533.34
2022-08-26T06:37:43.041Z,101533.59
2022-08-26T06:40:24.259Z,101535.16
2022-08-26T06:42:54.151Z,101534.94
2022-08-26T06:45:22.652Z,101545.78
2022-08-26T06:47:52.061Z,101542.03
2022-08-26T06:50:23.005Z,101547.22
2022-08-26T06:52:52.857Z,101541.44
2022-08-26T06:55:22.951Z,101555.22
2022-08-26T06:57:56.533Z,101558.94
2022-08-26T07:00:25.363Z,101557.50
2022-08-26T07:02:54.530Z,101562.09
2022-08-26T07:05:25.809Z,101559.69
2022-08-26T07:07:54.729Z,101564.97
2022-08-26T07:10:23.336Z,101559.91
2022-08-26T07:12:51.989Z,101565.22
2022-08-26T07:15:27.121Z,101565.59
2022-08-26T07:18:06.377Z,101576.94
2022-08-26T07:20:42.359Z,101568.72
2022-08-26T07:23:12.132Z,101576.44
2022-08-26T07:25:41.447Z,101571.63
2022-08-26T07:28:11.295Z,101579.34
2022-08-26T07:30:41.429Z,101578.16
2022-08-26T07:33:10.951Z,101576.72
2022-08-26T07:35:42.253Z,101579.50
2022-08-26T07:38:10.742Z,101585.03
2022-08-26T07:40:39.724Z,101584.19
2022-08-26T07:43:08.385Z,101583.97
2022-08-26T07:45:37.125Z,101590.97
2022-08-26T07:48:06.078Z,101591.56
2022-08-26T07:50:49.268Z,101590.25
2022-08-26T07:53:20.349Z,101589.97
2022-08-26T07:55:49.641Z,101597.69
2022-08-26T07:58:19.763Z,101594.56
2022-08-26T08:00:48.764Z,101597.47
2022-08-26T08:03:17.248Z,101589.25
2022-08-26T08:05:46.461Z,101598.06
2022-08-26T08:08:27.368Z,101601.31
2022-08-26T08:11:00.018Z,101595.16
2022-08-26T08:13:30.863Z,101595.44
2022-08-26T08:16:00.761Z,101595.53
2022-08-26T08:18:30.113Z,101598.09
2022-08-26T08:21:21.432Z,101600.25
2022-08-26T08:23:52.321Z,101606.09
2022-08-26T08:26:23.379Z,101597.47
2022-08-26T08:28:52.690Z,101594.72
2022-08-26T08:31:52.028Z,101600.13
2022-08-26T08:34:11.717Z,101601.81
2022-08-26T08:36:40.320Z,101602.31
2022-08-26T08:39:10.167Z,101602.16
2022-08-26T08:41:55.058Z,101600.13
2022-08-26T08:46:59.870Z,101607.25
2022-08-26T08:49:37.279Z,101606.31
2022-08-26T08:52:12.305Z,101609.22
2022-08-26T08:54:42.123Z,101609.22
2022-08-26T08:57:24.831Z,101607.16
2022-08-26T09:00:01.580Z,101612.25
2022-08-26T09:02:42.489Z,101606.56
2022-08-26T09:05:18.424Z,101603.72
2022-08-26T09:07:51.827Z,101603.22
2022-08-26T09:10:34.101Z,101604.53
2022-08-26T09:13:09.962Z,101598.38
2022-08-26T09:15:56.656Z,101603.56
2022-08-26T09:18:42.264Z,101603.78
2022-08-26T09:21:17.797Z,101599.66
2022-08-26T09:23:49.712Z,101597.59
2022-08-26T09:26:21.441Z,101596.41
2022-08-26T09:28:59.066Z,101604.00
2022-08-26T09:31:31.222Z,101600.41
2022-08-26T09:34:17.365Z,101603.44
2022-08-26T09:36:48.996Z,101603.81
2022-08-26T09:39:32.064Z,101611.34
2022-08-26T09:42:08.403Z,101610.41
2022-08-26T09:44:58.121Z,101610.06
2022-08-26T09:47:36.571Z,101610.63
2022-08-26T09:50:13.034Z,101609.31
2022-08-26T09:52:42.859Z,101612.09
2022-08-26T09:55:16.819Z,101605.69
2022-08-26T09:57:51.119Z,101606.28
2022-08-26T10:00:32.988Z,101604.84
2022-08-26T10:03:05.013Z,101605.69
2022-08-26T10:05:40.583Z,101606.28
2022-08-26T10:08:23.243Z,101614.47
2022-08-26T10:10:53.067Z,101620.38
2022-08-26T10:13:31.459Z,101606.25
2022-08-26T10:16:18.169Z,101612.88
2022-08-26T10:19:03.086Z,101606.47
2022-08-26T10:21:39.229Z,101618.28
2022-08-26T10:24:11.750Z,101622.91
2022-08-26T10:26:49.059Z,101621.38
2022-08-26T10:29:23.090Z,101615.66
2022-08-26T10:32:02.666Z,101627.25
2022-08-26T10:34:34.158Z,101623.94
2022-08-26T10:37:14.965Z,101630.81
2022-08-26T10:39:55.258Z,101630.06
2022-08-26T10:42:37.637Z,101618.88
2022-08-26T10:45:11.738Z,101621.72
2022-08-26T10:47:48.781Z,101629.00
2022-08-26T10:50:18.280Z,101628.63
2022-08-26T10:53:00.174Z,101627.06
2022-08-26T10:55:37.822Z,101635.19
2022-08-26T10:58:26.481Z,101636.53
2022-08-26T11:01:23.208Z,101634.72
2022-08-26T11:04:00.654Z,101633.34
2022-08-26T11:06:33.804Z,101633.94
2022-08-26T11:09:10.038Z,101621.63
2022-08-26T11:11:49.201Z,101628.56
2022-08-26T11:14:58.438Z,101623.22
2022-08-26T11:18:00.099Z,101623.69
2022-08-26T11:20:42.147Z,101607.56
2022-08-26T11:23:50.804Z,101608.09
2022-08-26T11:26:56.383Z,101599.16
2022-08-26T11:29:59.415Z,101592.22
2022-08-26T11:32:48.757Z,101595.50
2022-08-26T11:35:50.659Z,101589.72
2022-08-26T11:38:28.861Z,101590.97
2022-08-26T11:41:11.270Z,101603.91
2022-08-26T11:43:42.907Z,101598.06
2022-08-26T11:46:13.466Z,101598.81
2022-08-26T11:48:44.761Z,101583.81
2022-08-26T11:51:24.122Z,101583.84
2022-08-26T11:54:11.205Z,101587.09
2022-08-26T11:56:42.664Z,101597.06
2022-08-26T11:59:15.727Z,101608.53
2022-08-26T12:01:47.752Z,101619.31
2022-08-26T12:04:26.893Z,101606.25
2022-08-26T12:07:05.870Z,101609.22
2022-08-26T12:09:51.675Z,101598.16
2022-08-26T12:12:25.900Z,101602.13
2022-08-26T12:15:14.181Z,101601.22
2022-08-26T12:17:44.543Z,101597.69
2022-08-26T12:20:31.504Z,101592.88
2022-08-26T12:23:03.149Z,101592.34
2022-08-26T12:25:32.948Z,101588.84
2022-08-26T12:28:07.484Z,101586.06
2022-08-26T12:30:36.303Z,101586.09
2022-08-26T12:33:22.482Z,101590.19
2022-08-26T12:35:56.728Z,101586.34
2022-08-26T12:38:28.661Z,101592.94
2022-08-26T12:40:58.514Z,101591.69
2022-08-26T12:43:43.141Z,101583.81
2022-08-26T12:46:15.501Z,101585.09
2022-08-26T12:48:49.299Z,101582.00
2022-08-26T12:51:24.719Z,101585.09
2022-08-26T12:53:56.116Z,101588.03
2022-08-26T12:56:36.946Z,101579.31
2022-08-26T12:59:12.294Z,101583.81
2022-08-26T13:01:45.686Z,101588.34
2022-08-26T13:04:40.328Z,101584.22
2022-08-26T13:07:26.545Z,101583.16
2022-08-26T13:10:01.167Z,101580.47
2022-08-26T13:12:33.574Z,101572.72
2022-08-26T13:15:05.438Z,101576.47
2022-08-26T13:17:36.286Z,101569.59
2022-08-26T13:20:05.746Z,101562.38
2022-08-26T13:22:35.003Z,101561.91
2022-08-26T13:25:05.906Z,101563.22
2022-08-26T13:27:34.226Z,101564.16
2022-08-26T13:30:04.665Z,101564.19
2022-08-26T13:32:33.325Z,101554.56
2022-08-26T13:35:05.693Z,101552.56
2022-08-26T13:37:35.631Z,101549.66
2022-08-26T13:40:08.332Z,101554.19
2022-08-26T13:42:37.013Z,101558.47
2022-08-26T13:45:12.989Z,101550.59
2022-08-26T13:47:41.319Z,101554.47
2022-08-26T13:50:10.199Z,101552.41
2022-08-26T13:52:38.539Z,101556.66
2022-08-26T13:55:10.080Z,101557.25
2022-08-26T13:57:38.951Z,101542.75
2022-08-26T14:00:11.113Z,101549.38
2022-08-26T14:02:39.577Z,101551.09
2022-08-26T14:05:09.223Z,101552.00
2022-08-26T14:07:37.844Z,101551.06
2022-08-26T14:10:06.915Z,101545.13
2022-08-26T14:12:36.997Z,101544.75
2022-08-26T14:15:06.255Z,101540.22
2022-08-26T14:17:41.065Z,101543.59
2022-08-26T14:20:13.401Z,101549.38
2022-08-26T14:23:03.397Z,101545.63
2022-08-26T14:25:33.761Z,101547.91
2022-08-26T14:28:05.135Z,101547.47
2022-08-26T14:30:33.749Z,101542.22
2022-08-26T14:33:03.343Z,101544.72
2022-08-26T14:35:32.853Z,101535.72
2022-08-26T14:38:03.649Z,101534.31
2022-08-26T14:40:37.869Z,101546.19
2022-08-26T14:43:18.902Z,101545.50
2022-08-26T14:45:49.281Z,101545.94
2022-08-26T14:48:17.733Z,101544.53
2022-08-26T14:50:46.637Z,101547.50
2022-08-26T14:53:33.727Z,101547.38
2022-08-26T14:56:09.738Z,101540.75
2022-08-26T14:58:44.394Z,101544.97
2022-08-26T15:01:15.471Z,101542.88
2022-08-26T15:03:49.044Z,101542.72
2022-08-26T15:06:25.064Z,101536.88
2022-08-26T15:08:53.745Z,101538.59
2022-08-26T15:11:24.745Z,101532.97
2022-08-26T15:13:56.257Z,101534.72
2022-08-26T15:16:25.579Z,101534.16
2022-08-26T15:18:55.611Z,101534.50
2022-08-26T15:21:25.737Z,101528.03
2022-08-26T15:23:56.444Z,101524.28
2022-08-26T15:26:25.695Z,101523.03
2022-08-26T15:28:56.112Z,101516.66
2022-08-26T15:31:31.489Z,101517.19
2022-08-26T15:34:03.373Z,101517.59
2022-08-26T15:36:33.187Z,101509.34
2022-08-26T15:39:02.742Z,101512.69
2022-08-26T15:41:31.355Z,101511.47
2022-08-26T15:44:05.986Z,101516.75
2022-08-26T15:46:35.049Z,101514.16
2022-08-26T15:49:06.412Z,101507.41
2022-08-26T15:51:45.520Z,101506.09
2022-08-26T15:54:16.132Z,101504.81
2022-08-26T15:56:47.404Z,101505.25
2022-08-26T15:59:19.287Z,101498.31
2022-08-26T16:01:48.728Z,101495.47
2022-08-26T16:04:19.327Z,101489.25
2022-08-26T16:06:52.445Z,101493.75
2022-08-26T16:09:27.229Z,101494.19
2022-08-26T16:11:56.343Z,101487.44
2022-08-26T16:14:27.840Z,101483.22
2022-08-26T16:16:57.958Z,101485.50
2022-08-26T16:19:26.928Z,101486.66
2022-08-26T16:21:55.747Z,101484.69
2022-08-26T16:24:29.751Z,101480.38
2022-08-26T16:26:58.883Z,101483.66
2022-08-26T16:29:28.930Z,101478.78
2022-08-26T16:31:57.416Z,101482.06
2022-08-26T16:34:27.242Z,101484.75
2022-08-26T16:36:55.886Z,101482.72
2022-08-26T16:39:26.836Z,101487.72
2022-08-26T16:41:57.384Z,101488.69
2022-08-26T16:44:28.063Z,101487.84
2022-08-26T16:47:00.966Z,101482.88
2022-08-26T16:49:29.864Z,101469.34
2022-08-26T16:51:58.493Z,101482.06
2022-08-26T16:54:27.049Z,101480.00
2022-08-26T16:56:55.804Z,101486.19
2022-08-26T16:59:24.314Z,101487.88
2022-08-26T17:01:52.939Z,101484.41
2022-08-26T17:04:24.446Z,101485.63
2022-08-26T17:06:53.105Z,101494.78
2022-08-26T17:09:22.026Z,101496.66
2022-08-26T17:11:51.295Z,101499.63
2022-08-26T17:14:21.113Z,101501.59
2022-08-26T17:16:51.492Z,101501.53
2022-08-26T17:19:21.336Z,101500.53
2022-08-26T17:21:53.012Z,101498.53
2022-08-26T17:24:21.820Z,101504.34
2022-08-26T17:26:55.600Z,101502.22
2022-08-26T17:29:26.352Z,101501.94
2022-08-26T17:31:56.933Z,101505.13
2022-08-26T17:34:25.858Z,101507.72
2022-08-26T17:36:55.933Z,101506.44
2022-08-26T17:39:24.613Z,101500.84
2022-08-26T17:42:32.104Z,101506.44
2022-08-26T21:53:08.451Z,101650.09
2022-08-26T21:55:38.783Z,101650.81
2022-08-26T21:58:07.535Z,101651.63
2022-08-26T22:00:36.477Z,101649.81
2022-08-26T22:03:16.937Z,101657.78
2022-08-26T22:05:46.708Z,101652.84
2022-08-26T22:08:15.807Z,101654.88
2022-08-26T22:10:45.792Z,101661.91
2022-08-26T22:13:15.268Z,101667.94
2022-08-26T22:15:44.031Z,101668.03
2022-08-26T22:18:12.552Z,101670.69
2022-08-26T22:20:41.237Z,101674.44
2022-08-26T22:23:10.658Z,101672.00
2022-08-26T22:25:40.414Z,101678.91
2022-08-26T22:28:10.480Z,101671.38
2022-08-26T22:30:40.157Z,101679.84
2022-08-26T22:33:08.542Z,101672.84
2022-08-26T22:35:40.736Z,101685.16
2022-08-26T22:38:10.489Z,101677.41
2022-08-26T22:40:39.938Z,101684.66
2022-08-26T22:43:10.055Z,101682.13
2022-08-26T22:45:43.841Z,101676.91
2022-08-26T22:48:15.686Z,101679.13
2022-08-26T22:50:44.770Z,101673.44
2022-08-26T22:53:13.772Z,101682.38
2022-08-26T22:55:43.423Z,101686.09
2022-08-26T22:58:15.767Z,101687.19
2022-08-26T23:00:49.358Z,101691.75
2022-08-26T23:03:20.032Z,101685.63
2022-08-26T23:05:48.790Z,101687.44
2022-08-26T23:08:20.164Z,101687.53
2022-08-26T23:10:49.190Z,101693.09
2022-08-26T23:13:20.263Z,101695.66
2022-08-26T23:15:48.706Z,101692.03
2022-08-26T23:18:17.478Z,101691.06
2022-08-26T23:20:47.015Z,101683.09
2022-08-26T23:23:15.576Z,101684.78
2022-08-26T23:25:44.309Z,101682.13
2022-08-26T23:28:13.414Z,101686.72
2022-08-26T23:30:43.747Z,101691.06
2022-08-26T23:33:12.279Z,101680.16
2022-08-26T23:35:40.601Z,101681.69
2022-08-26T23:38:11.796Z,101673.72
2022-08-26T23:40:42.564Z,101682.25
2022-08-26T23:43:12.780Z,101680.78
2022-08-26T23:45:42.981Z,101685.50
2022-08-26T23:48:11.687Z,101685.94
2022-08-26T23:50:58.554Z,101684.25
2022-08-26T23:53:27.203Z,101685.38
2022-08-26T23:55:55.674Z,101683.97
2022-08-26T23:58:24.363Z,101685.44
